sensor_id;sensor_type;location;lat;lon;timestamp;temperature;humidity
20698;DHT22;10508;50.956;4.640;2022-11-20T00:01:19;4.50;99.90
20698;DHT22;10508;50.956;4.640;2022-11-20T00:03:45;4.50;99.90
20698;DHT22;10508;50.956;4.640;2022-11-20T00:06:13;4.50;99.90
20698;DHT22;10508;50.956;4.640;2022-11-20T00:08:39;4.50;99.90
20698;DHT22;10508;50.956;4.640;2022-11-20T00:11:07;4.50;99.90
20698;DHT22;10508;50.956;4.640;2022-11-20T00:13:33;4.50;99.90
20698;DHT22;10508;50.956;4.640;2022-11-20T00:16:00;4.50;99.90
20698;DHT22;10508;50.956;4.640;2022-11-20T00:18:27;4.50;99.90
20698;DHT22;10508;50.956;4.640;2022-11-20T00:21:06;4.40;99.90
20698;DHT22;10508;50.956;4.640;2022-11-20T00:23:32;4.50;99.90
20698;DHT22;10508;50.956;4.640;2022-11-20T00:26:05;4.40;99.90
20698;DHT22;10508;50.956;4.640;2022-11-20T00:28:31;4.30;99.90
20698;DHT22;10508;50.956;4.640;2022-11-20T00:31:03;4.30;99.90
20698;DHT22;10508;50.956;4.640;2022-11-20T00:33:29;4.40;99.90
20698;DHT22;10508;50.956;4.640;2022-11-20T00:36:02;4.40;99.90
20698;DHT22;10508;50.956;4.640;2022-11-20T00:38:29;4.40;99.90
20698;DHT22;10508;50.956;4.640;2022-11-20T00:41:00;4.40;99.90
20698;DHT22;10508;50.956;4.640;2022-11-20T00:43:26;4.40;99.90
20698;DHT22;10508;50.956;4.640;2022-11-20T00:46:02;4.40;99.90
20698;DHT22;10508;50.956;4.640;2022-11-20T00:48:28;4.50;99.90
20698;DHT22;10508;50.956;4.640;2022-11-20T00:50:54;4.50;99.90
20698;DHT22;10508;50.956;4.640;2022-11-20T00:53:20;4.60;99.90
20698;DHT22;10508;50.956;4.640;2022-11-20T00:55:57;4.50;99.90
20698;DHT22;10508;50.956;4.640;2022-11-20T00:58:24;4.40;99.90
20698;DHT22;10508;50.956;4.640;2022-11-20T01:00:50;4.50;99.90
20698;DHT22;10508;50.956;4.640;2022-11-20T01:03:17;4.50;99.90
20698;DHT22;10508;50.956;4.640;2022-11-20T01:05:43;4.50;99.90
20698;DHT22;10508;50.956;4.640;2022-11-20T01:08:09;4.40;99.90
20698;DHT22;10508;50.956;4.640;2022-11-20T01:10:35;4.50;99.90
20698;DHT22;10508;50.956;4.640;2022-11-20T01:13:00;4.50;99.90
20698;DHT22;10508;50.956;4.640;2022-11-20T01:15:44;4.40;99.90
20698;DHT22;10508;50.956;4.640;2022-11-20T01:18:10;4.40;99.90
20698;DHT22;10508;50.956;4.640;2022-11-20T01:20:36;4.40;99.90
20698;DHT22;10508;50.956;4.640;2022-11-20T01:23:03;4.50;99.90
20698;DHT22;10508;50.956;4.640;2022-11-20T01:25:29;4.50;99.90
20698;DHT22;10508;50.956;4.640;2022-11-20T01:27:55;4.50;99.90
20698;DHT22;10508;50.956;4.640;2022-11-20T01:30:20;4.50;99.90
20698;DHT22;10508;50.956;4.640;2022-11-20T01:32:46;4.50;99.90
20698;DHT22;10508;50.956;4.640;2022-11-20T01:35:11;4.40;99.90
20698;DHT22;10508;50.956;4.640;2022-11-20T01:37:37;4.50;99.90
20698;DHT22;10508;50.956;4.640;2022-11-20T01:40:03;4.50;99.90
20698;DHT22;10508;50.956;4.640;2022-11-20T01:42:29;4.50;99.90
20698;DHT22;10508;50.956;4.640;2022-11-20T01:48:16;4.60;99.90
20698;DHT22;10508;50.956;4.640;2022-11-20T01:50:42;4.60;99.90
20698;DHT22;10508;50.956;4.640;2022-11-20T01:53:12;4.60;99.90
20698;DHT22;10508;50.956;4.640;2022-11-20T01:55:43;4.60;99.90
20698;DHT22;10508;50.956;4.640;2022-11-20T01:58:09;4.50;99.90
20698;DHT22;10508;50.956;4.640;2022-11-20T02:00:35;4.50;99.90
20698;DHT22;10508;50.956;4.640;2022-11-20T02:03:05;4.50;99.90
20698;DHT22;10508;50.956;4.640;2022-11-20T02:08:15;4.50;99.90
20698;DHT22;10508;50.956;4.640;2022-11-20T02:10:41;4.60;99.90
20698;DHT22;10508;50.956;4.640;2022-11-20T02:13:07;4.70;99.90
20698;DHT22;10508;50.956;4.640;2022-11-20T02:15:52;4.70;99.90
20698;DHT22;10508;50.956;4.640;2022-11-20T02:18:19;4.60;99.90
20698;DHT22;10508;50.956;4.640;2022-11-20T02:20:47;4.60;99.90
20698;DHT22;10508;50.956;4.640;2022-11-20T02:23:38;4.60;99.90
20698;DHT22;10508;50.956;4.640;2022-11-20T02:26:09;4.60;99.90
20698;DHT22;10508;50.956;4.640;2022-11-20T02:28:36;4.40;99.90
20698;DHT22;10508;50.956;4.640;2022-11-20T02:31:01;4.50;99.90
20698;DHT22;10508;50.956;4.640;2022-11-20T02:33:27;4.40;99.90
20698;DHT22;10508;50.956;4.640;2022-11-20T02:35:53;4.50;99.90
20698;DHT22;10508;50.956;4.640;2022-11-20T02:38:19;4.50;99.90
20698;DHT22;10508;50.956;4.640;2022-11-20T02:40:44;4.50;99.90
20698;DHT22;10508;50.956;4.640;2022-11-20T02:43:10;4.60;99.90
20698;DHT22;10508;50.956;4.640;2022-11-20T02:45:36;4.40;99.90
20698;DHT22;10508;50.956;4.640;2022-11-20T02:48:02;4.50;99.90
20698;DHT22;10508;50.956;4.640;2022-11-20T02:50:27;4.50;99.90
20698;DHT22;10508;50.956;4.640;2022-11-20T02:52:53;4.40;99.90
20698;DHT22;10508;50.956;4.640;2022-11-20T02:55:18;4.50;99.90
20698;DHT22;10508;50.956;4.640;2022-11-20T02:57:44;4.50;99.90
20698;DHT22;10508;50.956;4.640;2022-11-20T03:00:10;4.50;99.90
20698;DHT22;10508;50.956;4.640;2022-11-20T03:02:36;4.60;99.90
20698;DHT22;10508;50.956;4.640;2022-11-20T03:05:02;4.50;99.90
20698;DHT22;10508;50.956;4.640;2022-11-20T03:07:28;4.50;99.90
20698;DHT22;10508;50.956;4.640;2022-11-20T03:09:53;4.50;99.90
20698;DHT22;10508;50.956;4.640;2022-11-20T03:12:19;4.40;99.90
20698;DHT22;10508;50.956;4.640;2022-11-20T03:14:44;4.50;99.90
20698;DHT22;10508;50.956;4.640;2022-11-20T03:17:10;4.50;99.90
20698;DHT22;10508;50.956;4.640;2022-11-20T03:19:35;4.50;99.90
20698;DHT22;10508;50.956;4.640;2022-11-20T03:22:01;4.40;99.90
20698;DHT22;10508;50.956;4.640;2022-11-20T03:24:27;4.40;99.90
20698;DHT22;10508;50.956;4.640;2022-11-20T03:26:52;4.50;99.90
20698;DHT22;10508;50.956;4.640;2022-11-20T03:29:18;4.50;99.90
20698;DHT22;10508;50.956;4.640;2022-11-20T03:31:44;4.40;99.90
20698;DHT22;10508;50.956;4.640;2022-11-20T03:34:10;4.40;99.90
20698;DHT22;10508;50.956;4.640;2022-11-20T03:36:40;4.40;99.90
20698;DHT22;10508;50.956;4.640;2022-11-20T03:39:06;4.50;99.90
20698;DHT22;10508;50.956;4.640;2022-11-20T03:41:36;4.50;99.90
20698;DHT22;10508;50.956;4.640;2022-11-20T03:44:05;4.40;99.90
20698;DHT22;10508;50.956;4.640;2022-11-20T03:46:32;4.40;99.90
20698;DHT22;10508;50.956;4.640;2022-11-20T03:48:57;4.40;99.90
20698;DHT22;10508;50.956;4.640;2022-11-20T03:51:34;4.50;99.90
20698;DHT22;10508;50.956;4.640;2022-11-20T03:54:02;4.60;99.90
20698;DHT22;10508;50.956;4.640;2022-11-20T03:56:31;4.60;99.90
20698;DHT22;10508;50.956;4.640;2022-11-20T03:58:57;4.60;99.90
20698;DHT22;10508;50.956;4.640;2022-11-20T04:01:26;4.50;99.90
20698;DHT22;10508;50.956;4.640;2022-11-20T04:03:53;4.50;99.90
20698;DHT22;10508;50.956;4.640;2022-11-20T04:06:21;4.50;99.90
20698;DHT22;10508;50.956;4.640;2022-11-20T04:08:47;4.60;99.90
20698;DHT22;10508;50.956;4.640;2022-11-20T04:11:21;4.50;99.90
20698;DHT22;10508;50.956;4.640;2022-11-20T04:13:49;4.50;99.90
20698;DHT22;10508;50.956;4.640;2022-11-20T04:16:15;4.40;99.90
20698;DHT22;10508;50.956;4.640;2022-11-20T04:18:41;4.40;99.90
20698;DHT22;10508;50.956;4.640;2022-11-20T04:21:08;4.50;99.90
20698;DHT22;10508;50.956;4.640;2022-11-20T04:23:34;4.50;99.90
20698;DHT22;10508;50.956;4.640;2022-11-20T04:26:08;4.50;99.90
20698;DHT22;10508;50.956;4.640;2022-11-20T04:28:34;4.50;99.90
20698;DHT22;10508;50.956;4.640;2022-11-20T04:31:13;4.50;99.90
20698;DHT22;10508;50.956;4.640;2022-11-20T04:33:39;4.40;99.90
20698;DHT22;10508;50.956;4.640;2022-11-20T04:36:09;4.30;99.90
20698;DHT22;10508;50.956;4.640;2022-11-20T04:38:36;4.40;99.90
20698;DHT22;10508;50.956;4.640;2022-11-20T04:41:04;4.40;99.90
20698;DHT22;10508;50.956;4.640;2022-11-20T04:43:31;4.30;99.90
20698;DHT22;10508;50.956;4.640;2022-11-20T04:45:57;4.30;99.90
20698;DHT22;10508;50.956;4.640;2022-11-20T04:48:24;4.20;99.90
20698;DHT22;10508;50.956;4.640;2022-11-20T04:50:51;4.30;99.90
20698;DHT22;10508;50.956;4.640;2022-11-20T04:53:17;4.20;99.90
20698;DHT22;10508;50.956;4.640;2022-11-20T04:55:43;4.10;99.90
20698;DHT22;10508;50.956;4.640;2022-11-20T04:58:09;4.00;99.90
20698;DHT22;10508;50.956;4.640;2022-11-20T05:00:35;4.10;99.90
20698;DHT22;10508;50.956;4.640;2022-11-20T05:03:00;4.10;99.90
20698;DHT22;10508;50.956;4.640;2022-11-20T05:05:26;4.10;99.90
20698;DHT22;10508;50.956;4.640;2022-11-20T05:07:52;4.10;99.90
20698;DHT22;10508;50.956;4.640;2022-11-20T05:10:17;4.00;99.90
20698;DHT22;10508;50.956;4.640;2022-11-20T05:12:43;3.90;99.90
20698;DHT22;10508;50.956;4.640;2022-11-20T05:15:09;3.90;99.90
20698;DHT22;10508;50.956;4.640;2022-11-20T05:17:34;4.00;99.90
20698;DHT22;10508;50.956;4.640;2022-11-20T05:20:00;4.00;99.90
20698;DHT22;10508;50.956;4.640;2022-11-20T05:22:25;4.00;99.90
20698;DHT22;10508;50.956;4.640;2022-11-20T05:24:51;4.00;99.90
20698;DHT22;10508;50.956;4.640;2022-11-20T05:27:17;4.00;99.90
20698;DHT22;10508;50.956;4.640;2022-11-20T05:29:43;4.00;99.90
20698;DHT22;10508;50.956;4.640;2022-11-20T05:32:09;3.90;99.90
20698;DHT22;10508;50.956;4.640;2022-11-20T05:34:35;3.90;99.90
20698;DHT22;10508;50.956;4.640;2022-11-20T05:37:02;3.90;99.90
20698;DHT22;10508;50.956;4.640;2022-11-20T05:39:28;4.00;99.90
20698;DHT22;10508;50.956;4.640;2022-11-20T05:41:54;3.90;99.90
20698;DHT22;10508;50.956;4.640;2022-11-20T05:44:38;4.00;99.90
20698;DHT22;10508;50.956;4.640;2022-11-20T05:47:04;4.10;99.90
20698;DHT22;10508;50.956;4.640;2022-11-20T05:49:30;4.00;99.90
20698;DHT22;10508;50.956;4.640;2022-11-20T05:51:55;4.00;99.90
20698;DHT22;10508;50.956;4.640;2022-11-20T05:54:21;4.00;99.90
20698;DHT22;10508;50.956;4.640;2022-11-20T05:56:46;4.10;99.90
20698;DHT22;10508;50.956;4.640;2022-11-20T05:59:12;4.10;99.90
20698;DHT22;10508;50.956;4.640;2022-11-20T06:01:37;4.10;99.90
20698;DHT22;10508;50.956;4.640;2022-11-20T06:04:03;4.10;99.90
20698;DHT22;10508;50.956;4.640;2022-11-20T06:06:29;4.10;99.90
20698;DHT22;10508;50.956;4.640;2022-11-20T06:08:55;4.10;99.90
20698;DHT22;10508;50.956;4.640;2022-11-20T06:11:21;4.20;99.90
20698;DHT22;10508;50.956;4.640;2022-11-20T06:13:47;4.30;99.90
20698;DHT22;10508;50.956;4.640;2022-11-20T06:16:15;4.30;99.90
20698;DHT22;10508;50.956;4.640;2022-11-20T06:18:41;4.30;99.90
20698;DHT22;10508;50.956;4.640;2022-11-20T06:21:13;4.30;99.90
20698;DHT22;10508;50.956;4.640;2022-11-20T06:23:39;4.30;99.90
20698;DHT22;10508;50.956;4.640;2022-11-20T06:26:09;4.30;99.90
20698;DHT22;10508;50.956;4.640;2022-11-20T06:28:36;4.30;99.90
20698;DHT22;10508;50.956;4.640;2022-11-20T06:31:02;4.30;99.90
20698;DHT22;10508;50.956;4.640;2022-11-20T06:33:28;4.30;99.90
20698;DHT22;10508;50.956;4.640;2022-11-20T06:35:57;4.30;99.90
20698;DHT22;10508;50.956;4.640;2022-11-20T06:38:24;4.30;99.90
20698;DHT22;10508;50.956;4.640;2022-11-20T06:40:49;4.30;99.90
20698;DHT22;10508;50.956;4.640;2022-11-20T06:43:16;4.30;99.90
20698;DHT22;10508;50.956;4.640;2022-11-20T06:45:41;4.30;99.90
20698;DHT22;10508;50.956;4.640;2022-11-20T06:48:08;4.40;99.90
20698;DHT22;10508;50.956;4.640;2022-11-20T06:50:33;4.40;99.90
20698;DHT22;10508;50.956;4.640;2022-11-20T06:53:02;4.40;99.90
20698;DHT22;10508;50.956;4.640;2022-11-20T06:55:29;4.40;99.90
20698;DHT22;10508;50.956;4.640;2022-11-20T06:57:55;4.30;99.90
20698;DHT22;10508;50.956;4.640;2022-11-20T07:00:20;4.40;99.90
20698;DHT22;10508;50.956;4.640;2022-11-20T07:02:46;4.40;99.90
20698;DHT22;10508;50.956;4.640;2022-11-20T07:05:11;4.50;99.90
20698;DHT22;10508;50.956;4.640;2022-11-20T07:07:37;4.50;99.90
20698;DHT22;10508;50.956;4.640;2022-11-20T07:10:03;4.60;99.90
20698;DHT22;10508;50.956;4.640;2022-11-20T07:12:29;4.60;99.90
20698;DHT22;10508;50.956;4.640;2022-11-20T07:14:55;4.60;99.90
20698;DHT22;10508;50.956;4.640;2022-11-20T07:17:20;4.60;99.90
20698;DHT22;10508;50.956;4.640;2022-11-20T07:19:46;4.80;99.90
20698;DHT22;10508;50.956;4.640;2022-11-20T07:22:11;4.80;99.90
20698;DHT22;10508;50.956;4.640;2022-11-20T07:24:38;4.90;99.90
20698;DHT22;10508;50.956;4.640;2022-11-20T07:27:04;4.80;99.90
20698;DHT22;10508;50.956;4.640;2022-11-20T07:29:30;4.80;99.90
20698;DHT22;10508;50.956;4.640;2022-11-20T07:31:55;4.90;99.90
20698;DHT22;10508;50.956;4.640;2022-11-20T07:34:22;5.00;99.90
20698;DHT22;10508;50.956;4.640;2022-11-20T07:36:47;5.00;99.90
20698;DHT22;10508;50.956;4.640;2022-11-20T07:39:13;5.10;99.90
20698;DHT22;10508;50.956;4.640;2022-11-20T07:41:39;5.10;99.90
20698;DHT22;10508;50.956;4.640;2022-11-20T07:44:04;5.10;99.90
20698;DHT22;10508;50.956;4.640;2022-11-20T07:46:30;5.10;99.90
20698;DHT22;10508;50.956;4.640;2022-11-20T07:48:56;5.10;99.90
20698;DHT22;10508;50.956;4.640;2022-11-20T07:51:22;5.10;99.90
20698;DHT22;10508;50.956;4.640;2022-11-20T07:53:50;5.10;99.90
20698;DHT22;10508;50.956;4.640;2022-11-20T07:56:15;5.20;99.90
20698;DHT22;10508;50.956;4.640;2022-11-20T07:58:41;5.20;99.90
20698;DHT22;10508;50.956;4.640;2022-11-20T08:01:07;5.20;99.90
20698;DHT22;10508;50.956;4.640;2022-11-20T08:03:35;5.20;99.90
20698;DHT22;10508;50.956;4.640;2022-11-20T08:06:04;5.30;99.90
20698;DHT22;10508;50.956;4.640;2022-11-20T08:08:30;5.30;99.90
20698;DHT22;10508;50.956;4.640;2022-11-20T08:10:59;5.30;99.90
20698;DHT22;10508;50.956;4.640;2022-11-20T08:13:43;5.30;99.90
20698;DHT22;10508;50.956;4.640;2022-11-20T08:16:28;5.40;99.90
20698;DHT22;10508;50.956;4.640;2022-11-20T08:18:54;5.40;99.90
20698;DHT22;10508;50.956;4.640;2022-11-20T08:21:19;5.50;99.90
20698;DHT22;10508;50.956;4.640;2022-11-20T08:23:45;5.50;99.90
20698;DHT22;10508;50.956;4.640;2022-11-20T08:26:11;5.50;99.90
20698;DHT22;10508;50.956;4.640;2022-11-20T08:28:36;5.50;99.90
20698;DHT22;10508;50.956;4.640;2022-11-20T08:31:02;5.50;99.90
20698;DHT22;10508;50.956;4.640;2022-11-20T08:33:29;5.50;99.90
20698;DHT22;10508;50.956;4.640;2022-11-20T08:36:01;5.50;99.90
20698;DHT22;10508;50.956;4.640;2022-11-20T08:38:27;5.60;99.90
20698;DHT22;10508;50.956;4.640;2022-11-20T08:40:57;5.60;99.90
20698;DHT22;10508;50.956;4.640;2022-11-20T08:43:41;5.60;99.90
20698;DHT22;10508;50.956;4.640;2022-11-20T08:46:06;5.60;99.90
20698;DHT22;10508;50.956;4.640;2022-11-20T08:48:32;5.70;99.90
20698;DHT22;10508;50.956;4.640;2022-11-20T08:50:59;5.70;99.90
20698;DHT22;10508;50.956;4.640;2022-11-20T08:53:25;5.70;99.90
20698;DHT22;10508;50.956;4.640;2022-11-20T08:55:51;5.80;99.90
20698;DHT22;10508;50.956;4.640;2022-11-20T08:58:17;5.80;99.90
20698;DHT22;10508;50.956;4.640;2022-11-20T09:00:43;5.80;99.90
20698;DHT22;10508;50.956;4.640;2022-11-20T09:03:08;5.90;99.90
20698;DHT22;10508;50.956;4.640;2022-11-20T09:05:34;5.90;99.90
20698;DHT22;10508;50.956;4.640;2022-11-20T09:08:00;5.90;99.90
20698;DHT22;10508;50.956;4.640;2022-11-20T09:10:28;5.90;99.90
20698;DHT22;10508;50.956;4.640;2022-11-20T09:12:54;5.90;99.90
20698;DHT22;10508;50.956;4.640;2022-11-20T09:15:21;5.90;99.90
20698;DHT22;10508;50.956;4.640;2022-11-20T09:17:59;5.90;99.90
20698;DHT22;10508;50.956;4.640;2022-11-20T09:20:26;5.90;99.90
20698;DHT22;10508;50.956;4.640;2022-11-20T09:22:53;6.00;99.90
20698;DHT22;10508;50.956;4.640;2022-11-20T09:25:18;6.00;99.90
20698;DHT22;10508;50.956;4.640;2022-11-20T09:27:44;6.00;99.90
20698;DHT22;10508;50.956;4.640;2022-11-20T09:30:12;6.00;99.90
20698;DHT22;10508;50.956;4.640;2022-11-20T09:32:42;6.10;99.90
20698;DHT22;10508;50.956;4.640;2022-11-20T09:35:08;6.10;99.90
20698;DHT22;10508;50.956;4.640;2022-11-20T09:37:34;6.20;99.90
20698;DHT22;10508;50.956;4.640;2022-11-20T09:40:00;6.30;99.90
20698;DHT22;10508;50.956;4.640;2022-11-20T09:42:44;6.20;99.90
20698;DHT22;10508;50.956;4.640;2022-11-20T09:51:34;6.40;99.90
20698;DHT22;10508;50.956;4.640;2022-11-20T09:54:19;6.50;99.90
20698;DHT22;10508;50.956;4.640;2022-11-20T09:56:59;6.50;99.90
20698;DHT22;10508;50.956;4.640;2022-11-20T09:59:38;6.50;99.90
20698;DHT22;10508;50.956;4.640;2022-11-20T10:05:04;6.70;99.90
20698;DHT22;10508;50.956;4.640;2022-11-20T10:07:39;6.70;99.90
20698;DHT22;10508;50.956;4.640;2022-11-20T10:10:20;6.80;99.90
20698;DHT22;10508;50.956;4.640;2022-11-20T10:15:34;6.90;99.90
20698;DHT22;10508;50.956;4.640;2022-11-20T10:18:08;7.00;99.90
20698;DHT22;10508;50.956;4.640;2022-11-20T10:28:56;7.20;99.90
20698;DHT22;10508;50.956;4.640;2022-11-20T10:31:35;7.20;99.90
20698;DHT22;10508;50.956;4.640;2022-11-20T10:34:28;7.20;99.90
20698;DHT22;10508;50.956;4.640;2022-11-20T10:36:59;7.30;99.90
20698;DHT22;10508;50.956;4.640;2022-11-20T10:42:47;7.30;99.90
20698;DHT22;10508;50.956;4.640;2022-11-20T10:45:45;7.40;99.90
20698;DHT22;10508;50.956;4.640;2022-11-20T10:48:22;7.50;99.90
20698;DHT22;10508;50.956;4.640;2022-11-20T10:53:46;7.60;99.90
20698;DHT22;10508;50.956;4.640;2022-11-20T10:56:20;7.60;99.90
20698;DHT22;10508;50.956;4.640;2022-11-20T11:01:43;7.80;99.90
20698;DHT22;10508;50.956;4.640;2022-11-20T11:07:09;8.00;99.90
20698;DHT22;10508;50.956;4.640;2022-11-20T11:09:40;8.10;99.90
20698;DHT22;10508;50.956;4.640;2022-11-20T11:12:09;8.20;99.90
20698;DHT22;10508;50.956;4.640;2022-11-20T11:14:46;8.40;99.90
20698;DHT22;10508;50.956;4.640;2022-11-20T11:17:34;8.50;99.90
20698;DHT22;10508;50.956;4.640;2022-11-20T11:22:34;8.60;99.90
20698;DHT22;10508;50.956;4.640;2022-11-20T11:25:11;8.60;99.90
20698;DHT22;10508;50.956;4.640;2022-11-20T11:27:48;8.70;99.90
20698;DHT22;10508;50.956;4.640;2022-11-20T11:30:16;8.70;99.90
20698;DHT22;10508;50.956;4.640;2022-11-20T11:32:42;8.70;99.90
20698;DHT22;10508;50.956;4.640;2022-11-20T11:35:28;8.80;99.90
20698;DHT22;10508;50.956;4.640;2022-11-20T11:38:10;8.80;99.90
20698;DHT22;10508;50.956;4.640;2022-11-20T11:40:39;8.80;99.90
20698;DHT22;10508;50.956;4.640;2022-11-20T11:43:15;8.80;99.90
20698;DHT22;10508;50.956;4.640;2022-11-20T11:46:01;9.00;99.90
20698;DHT22;10508;50.956;4.640;2022-11-20T11:48:27;9.00;99.90
20698;DHT22;10508;50.956;4.640;2022-11-20T11:50:53;9.00;99.90
20698;DHT22;10508;50.956;4.640;2022-11-20T11:53:23;9.00;99.90
20698;DHT22;10508;50.956;4.640;2022-11-20T11:56:02;9.10;99.90
20698;DHT22;10508;50.956;4.640;2022-11-20T12:04:27;9.20;99.90
20698;DHT22;10508;50.956;4.640;2022-11-20T12:07:03;9.40;99.90
20698;DHT22;10508;50.956;4.640;2022-11-20T12:09:37;9.40;99.90
20698;DHT22;10508;50.956;4.640;2022-11-20T12:12:15;9.40;99.90
20698;DHT22;10508;50.956;4.640;2022-11-20T12:14:46;9.40;99.90
20698;DHT22;10508;50.956;4.640;2022-11-20T12:17:13;9.40;99.90
20698;DHT22;10508;50.956;4.640;2022-11-20T12:19:40;9.30;99.90
20698;DHT22;10508;50.956;4.640;2022-11-20T12:30:14;9.10;99.90
20698;DHT22;10508;50.956;4.640;2022-11-20T12:38:39;9.00;99.90
20698;DHT22;10508;50.956;4.640;2022-11-20T12:41:22;8.90;99.90
20698;DHT22;10508;50.956;4.640;2022-11-20T12:47:28;8.80;99.90
20698;DHT22;10508;50.956;4.640;2022-11-20T12:52:47;8.60;99.90
20698;DHT22;10508;50.956;4.640;2022-11-20T12:58:03;8.60;99.90
20698;DHT22;10508;50.956;4.640;2022-11-20T13:00:31;8.50;99.90
20698;DHT22;10508;50.956;4.640;2022-11-20T13:08:36;8.50;99.90
20698;DHT22;10508;50.956;4.640;2022-11-20T13:16:55;8.40;99.90
20698;DHT22;10508;50.956;4.640;2022-11-20T13:19:24;8.40;99.90
20698;DHT22;10508;50.956;4.640;2022-11-20T13:21:50;8.40;99.90
20698;DHT22;10508;50.956;4.640;2022-11-20T13:24:20;8.40;99.90
20698;DHT22;10508;50.956;4.640;2022-11-20T13:29:46;8.40;99.90
20698;DHT22;10508;50.956;4.640;2022-11-20T13:32:18;8.50;99.90
20698;DHT22;10508;50.956;4.640;2022-11-20T13:35:04;8.40;99.90
20698;DHT22;10508;50.956;4.640;2022-11-20T13:37:38;8.40;99.90
20698;DHT22;10508;50.956;4.640;2022-11-20T13:42:45;8.40;99.90
20698;DHT22;10508;50.956;4.640;2022-11-20T13:45:26;8.30;99.90
20698;DHT22;10508;50.956;4.640;2022-11-20T13:47:54;8.30;99.90
20698;DHT22;10508;50.956;4.640;2022-11-20T13:50:27;8.30;99.90
20698;DHT22;10508;50.956;4.640;2022-11-20T13:53:23;8.30;99.90
20698;DHT22;10508;50.956;4.640;2022-11-20T13:56:00;8.30;99.90
20698;DHT22;10508;50.956;4.640;2022-11-20T14:01:28;8.20;99.90
20698;DHT22;10508;50.956;4.640;2022-11-20T14:03:56;8.10;99.90
20698;DHT22;10508;50.956;4.640;2022-11-20T14:06:30;8.10;99.90
20698;DHT22;10508;50.956;4.640;2022-11-20T14:08:57;8.10;99.90
20698;DHT22;10508;50.956;4.640;2022-11-20T14:11:26;8.10;99.90
20698;DHT22;10508;50.956;4.640;2022-11-20T14:14:13;8.10;99.90
20698;DHT22;10508;50.956;4.640;2022-11-20T14:16:40;8.20;99.90
20698;DHT22;10508;50.956;4.640;2022-11-20T14:22:14;8.10;99.90
20698;DHT22;10508;50.956;4.640;2022-11-20T14:24:42;8.10;99.90
20698;DHT22;10508;50.956;4.640;2022-11-20T14:27:19;8.20;99.90
20698;DHT22;10508;50.956;4.640;2022-11-20T14:29:50;8.20;99.90
20698;DHT22;10508;50.956;4.640;2022-11-20T14:32:17;8.20;99.90
20698;DHT22;10508;50.956;4.640;2022-11-20T14:34:46;8.20;99.90
20698;DHT22;10508;50.956;4.640;2022-11-20T14:37:17;8.20;99.90
20698;DHT22;10508;50.956;4.640;2022-11-20T14:39:55;8.20;99.90
20698;DHT22;10508;50.956;4.640;2022-11-20T14:42:28;8.20;99.90
20698;DHT22;10508;50.956;4.640;2022-11-20T14:44:58;8.20;99.90
20698;DHT22;10508;50.956;4.640;2022-11-20T14:47:29;8.20;99.90
20698;DHT22;10508;50.956;4.640;2022-11-20T14:49:57;8.20;99.90
20698;DHT22;10508;50.956;4.640;2022-11-20T14:52:25;8.20;99.90
20698;DHT22;10508;50.956;4.640;2022-11-20T14:54:53;8.30;99.90
20698;DHT22;10508;50.956;4.640;2022-11-20T14:59:51;8.40;99.90
20698;DHT22;10508;50.956;4.640;2022-11-20T15:02:17;8.40;99.90
20698;DHT22;10508;50.956;4.640;2022-11-20T15:04:46;8.40;99.90
20698;DHT22;10508;50.956;4.640;2022-11-20T15:07:27;8.40;99.90
20698;DHT22;10508;50.956;4.640;2022-11-20T15:10:06;8.40;99.90
20698;DHT22;10508;50.956;4.640;2022-11-20T15:12:36;8.40;99.90
20698;DHT22;10508;50.956;4.640;2022-11-20T15:15:03;8.40;99.90
20698;DHT22;10508;50.956;4.640;2022-11-20T15:17:31;8.40;99.90
20698;DHT22;10508;50.956;4.640;2022-11-20T15:19:59;8.40;99.90
20698;DHT22;10508;50.956;4.640;2022-11-20T15:22:25;8.40;99.90
20698;DHT22;10508;50.956;4.640;2022-11-20T15:24:50;8.40;99.90
20698;DHT22;10508;50.956;4.640;2022-11-20T15:27:16;8.50;99.90
20698;DHT22;10508;50.956;4.640;2022-11-20T15:29:42;8.50;99.90
20698;DHT22;10508;50.956;4.640;2022-11-20T15:32:08;8.40;99.90
20698;DHT22;10508;50.956;4.640;2022-11-20T15:34:34;8.50;99.90
20698;DHT22;10508;50.956;4.640;2022-11-20T15:37:00;8.50;99.90
20698;DHT22;10508;50.956;4.640;2022-11-20T15:39:25;8.50;99.90
20698;DHT22;10508;50.956;4.640;2022-11-20T15:41:51;8.50;99.90
20698;DHT22;10508;50.956;4.640;2022-11-20T15:44:16;8.60;99.90
20698;DHT22;10508;50.956;4.640;2022-11-20T15:46:42;8.60;99.90
20698;DHT22;10508;50.956;4.640;2022-11-20T15:49:15;8.60;99.90
20698;DHT22;10508;50.956;4.640;2022-11-20T15:51:44;8.60;99.90
20698;DHT22;10508;50.956;4.640;2022-11-20T15:54:20;8.60;99.90
20698;DHT22;10508;50.956;4.640;2022-11-20T15:56:47;8.60;99.90
20698;DHT22;10508;50.956;4.640;2022-11-20T15:59:13;8.60;99.90
20698;DHT22;10508;50.956;4.640;2022-11-20T16:01:42;8.70;99.90
20698;DHT22;10508;50.956;4.640;2022-11-20T16:04:12;8.70;99.90
20698;DHT22;10508;50.956;4.640;2022-11-20T16:06:38;8.60;99.90
20698;DHT22;10508;50.956;4.640;2022-11-20T16:09:03;8.60;99.90
20698;DHT22;10508;50.956;4.640;2022-11-20T16:11:29;8.60;99.90
20698;DHT22;10508;50.956;4.640;2022-11-20T16:13:55;8.60;99.90
20698;DHT22;10508;50.956;4.640;2022-11-20T16:16:39;8.60;99.90
20698;DHT22;10508;50.956;4.640;2022-11-20T16:19:10;8.60;99.90
20698;DHT22;10508;50.956;4.640;2022-11-20T16:21:36;8.60;99.90
20698;DHT22;10508;50.956;4.640;2022-11-20T16:24:06;8.50;99.90
20698;DHT22;10508;50.956;4.640;2022-11-20T16:26:33;8.50;99.90
20698;DHT22;10508;50.956;4.640;2022-11-20T16:29:00;8.50;99.90
20698;DHT22;10508;50.956;4.640;2022-11-20T16:31:26;8.50;99.90
20698;DHT22;10508;50.956;4.640;2022-11-20T16:33:53;8.50;99.90
20698;DHT22;10508;50.956;4.640;2022-11-20T16:36:21;8.50;99.90
20698;DHT22;10508;50.956;4.640;2022-11-20T16:38:51;8.50;99.90
20698;DHT22;10508;50.956;4.640;2022-11-20T16:41:16;8.50;99.90
20698;DHT22;10508;50.956;4.640;2022-11-20T16:43:47;8.50;99.90
20698;DHT22;10508;50.956;4.640;2022-11-20T16:46:14;8.50;99.90
20698;DHT22;10508;50.956;4.640;2022-11-20T16:48:40;8.50;99.90
20698;DHT22;10508;50.956;4.640;2022-11-20T16:51:08;8.50;99.90
20698;DHT22;10508;50.956;4.640;2022-11-20T16:53:35;8.50;99.90
20698;DHT22;10508;50.956;4.640;2022-11-20T16:56:12;8.50;99.90
20698;DHT22;10508;50.956;4.640;2022-11-20T16:58:38;8.50;99.90
20698;DHT22;10508;50.956;4.640;2022-11-20T17:01:05;8.60;99.90
20698;DHT22;10508;50.956;4.640;2022-11-20T17:03:31;8.60;99.90
20698;DHT22;10508;50.956;4.640;2022-11-20T17:05:56;8.60;99.90
20698;DHT22;10508;50.956;4.640;2022-11-20T17:08:22;8.60;99.90
20698;DHT22;10508;50.956;4.640;2022-11-20T17:10:48;8.60;99.90
20698;DHT22;10508;50.956;4.640;2022-11-20T17:13:13;8.70;99.90
20698;DHT22;10508;50.956;4.640;2022-11-20T17:15:39;8.70;99.90
20698;DHT22;10508;50.956;4.640;2022-11-20T17:18:04;8.70;99.90
20698;DHT22;10508;50.956;4.640;2022-11-20T17:20:30;8.70;99.90
20698;DHT22;10508;50.956;4.640;2022-11-20T17:22:56;8.70;99.90
20698;DHT22;10508;50.956;4.640;2022-11-20T17:25:22;8.70;99.90
20698;DHT22;10508;50.956;4.640;2022-11-20T17:27:47;8.70;99.90
20698;DHT22;10508;50.956;4.640;2022-11-20T17:30:13;8.60;99.90